createdAt,value
2019-05-14T00:02:12.311Z,95021.31
2019-05-14T00:04:42.408Z,95016.84
2019-05-14T00:07:11.609Z,95009.28
2019-05-14T00:09:41.504Z,95013.29
2019-05-14T00:12:11.284Z,95011.63
2019-05-14T00:14:43.531Z,95011.83
2019-05-14T00:17:11.320Z,95017.36
2019-05-14T00:19:41.742Z,95011.24
2019-05-14T00:22:11.543Z,95013.09
2019-05-14T00:24:41.714Z,95015.28
2019-05-14T00:27:11.483Z,95007.56
2019-05-14T00:29:41.699Z,94994.09
2019-05-14T00:32:11.256Z,94996.55
2019-05-14T00:34:42.178Z,94993.87
2019-05-14T00:37:11.543Z,94992.94
2019-05-14T00:39:41.690Z,94987.03
2019-05-14T00:42:12.516Z,94983.67
2019-05-14T00:44:53.601Z,94975.89
2019-05-14T00:47:11.301Z,94979.27
2019-05-14T00:49:42.285Z,94975.17
2019-05-14T00:52:11.719Z,94976.39
2019-05-14T00:54:41.721Z,94976.50
2019-05-14T00:57:11.783Z,94972.23
2019-05-14T00:59:41.642Z,94983.34
2019-05-14T01:02:11.448Z,94983.06
2019-05-14T01:04:42.592Z,94983.92
2019-05-14T01:07:11.935Z,94983.55
2019-05-14T01:09:42.116Z,94983.38
2019-05-14T01:12:12.231Z,94984.19
2019-05-14T01:14:42.396Z,94984.66
2019-05-14T01:17:11.362Z,94984.20
2019-05-14T01:19:42.194Z,94985.00
2019-05-14T01:22:12.245Z,94984.25
2019-05-14T01:24:41.757Z,94988.30
2019-05-14T01:27:12.290Z,94985.87
2019-05-14T01:29:42.500Z,94979.52
2019-05-14T01:32:11.620Z,94977.67
2019-05-14T01:34:41.973Z,94979.83
2019-05-14T01:37:11.669Z,94981.13
2019-05-14T01:39:41.749Z,94977.97
2019-05-14T01:42:12.551Z,94978.69
2019-05-14T01:44:41.367Z,94971.27
2019-05-14T01:47:12.461Z,94971.78
2019-05-14T01:49:42.468Z,94960.19
2019-05-14T01:52:11.292Z,94959.87
2019-05-14T01:54:42.402Z,94960.19
2019-05-14T01:57:11.513Z,94958.19
2019-05-14T01:59:42.635Z,94954.53
2019-05-14T02:02:11.607Z,94949.56
2019-05-14T02:04:42.698Z,94947.59
2019-05-14T02:07:11.672Z,94947.03
2019-05-14T02:09:42.001Z,94941.56
2019-05-14T02:12:11.751Z,94944.14
2019-05-14T02:14:42.520Z,94942.16
2019-05-14T02:17:12.404Z,94940.88
2019-05-14T02:19:42.608Z,94940.25
2019-05-14T02:22:11.544Z,94941.05
2019-05-14T02:24:41.764Z,94930.82
2019-05-14T02:27:12.254Z,94933.99
2019-05-14T02:29:41.773Z,94928.55
2019-05-14T02:32:10.982Z,94931.14
2019-05-14T02:34:40.529Z,94929.55
2019-05-14T02:37:09.610Z,94924.39
2019-05-14T02:39:40.626Z,94920.44
2019-05-14T02:42:09.502Z,94922.91
2019-05-14T02:44:40.786Z,94920.12
2019-05-14T02:47:10.046Z,94916.07
2019-05-14T02:49:39.691Z,94917.34
2019-05-14T02:52:10.023Z,94911.89
2019-05-14T02:54:40.376Z,94906.55
2019-05-14T02:57:10.436Z,94909.62
2019-05-14T02:59:39.962Z,94905.62
2019-05-14T03:02:09.957Z,94907.43
2019-05-14T03:04:39.760Z,94901.37
2019-05-14T03:07:10.660Z,94905.63
2019-05-14T03:09:40.357Z,94911.70
2019-05-14T03:12:10.120Z,94906.42
2019-05-14T03:14:39.573Z,94908.13
2019-05-14T03:17:10.368Z,94904.13
2019-05-14T03:19:40.750Z,94901.56
2019-05-14T03:22:10.261Z,94906.00
2019-05-14T03:24:39.677Z,94899.77
2019-05-14T03:27:09.754Z,94900.23
2019-05-14T03:29:39.697Z,94901.05
2019-05-14T03:32:13.090Z,94903.81
2019-05-14T03:34:42.828Z,94904.02
2019-05-14T03:37:12.837Z,94902.33
2019-05-14T03:39:39.823Z,94893.20
2019-05-14T03:42:09.440Z,94893.39
2019-05-14T03:44:40.020Z,94891.42
2019-05-14T03:47:10.155Z,94889.92
2019-05-14T03:49:39.745Z,94891.02
2019-05-14T03:52:09.719Z,94889.14
2019-05-14T03:54:40.533Z,94884.29
2019-05-14T03:57:09.789Z,94876.83
2019-05-14T03:59:40.224Z,94883.48
2019-05-14T04:02:10.274Z,94882.48
2019-05-14T04:04:39.529Z,94875.56
2019-05-14T04:07:09.887Z,94879.72
2019-05-14T04:09:40.187Z,94876.63
2019-05-14T04:12:10.015Z,94871.20
2019-05-14T04:14:40.854Z,94875.25
2019-05-14T04:17:15.483Z,94880.23
2019-05-14T04:19:43.252Z,94886.67
2019-05-14T04:22:13.704Z,94889.23
2019-05-14T04:24:43.625Z,94891.92
2019-05-14T04:27:14.132Z,94890.66
2019-05-14T04:29:42.703Z,94894.83
2019-05-14T04:32:11.469Z,94896.90
2019-05-14T04:34:40.474Z,94891.95
2019-05-14T04:37:10.150Z,94893.44
2019-05-14T04:39:39.560Z,94897.62
2019-05-14T04:42:09.802Z,94895.53
2019-05-14T04:44:40.310Z,94895.23
2019-05-14T04:47:24.179Z,94895.91
2019-05-14T04:49:40.004Z,94889.83
2019-05-14T04:52:10.050Z,94896.09
2019-05-14T04:54:39.574Z,94891.12
2019-05-14T04:57:10.179Z,94892.87
2019-05-14T04:59:39.981Z,94891.67
2019-05-14T05:02:09.640Z,94892.92
2019-05-14T05:04:41.263Z,94890.01
2019-05-14T05:07:10.053Z,94892.96
2019-05-14T05:09:39.968Z,94884.77
2019-05-14T05:12:09.277Z,94883.80
2019-05-14T05:14:38.829Z,94885.56
2019-05-14T05:17:09.296Z,94887.06
2019-05-14T05:19:39.334Z,94880.12
2019-05-14T05:22:10.360Z,94882.97
2019-05-14T05:24:38.806Z,94877.80
2019-05-14T05:27:09.352Z,94876.75
2019-05-14T05:29:39.210Z,94868.15
2019-05-14T05:32:08.661Z,94868.88
2019-05-14T05:34:38.836Z,94868.11
2019-05-14T05:37:08.608Z,94873.54
2019-05-14T05:39:38.676Z,94874.55
2019-05-14T05:42:09.267Z,94874.98
2019-05-14T05:44:39.339Z,94871.41
2019-05-14T05:47:09.183Z,94870.70
2019-05-14T05:49:38.272Z,94868.70
2019-05-14T05:52:08.534Z,94876.61
2019-05-14T05:54:38.413Z,94871.87
2019-05-14T05:57:09.159Z,94869.91
2019-05-14T05:59:39.291Z,94876.77
2019-05-14T06:02:09.360Z,94870.55
2019-05-14T06:04:39.307Z,94869.61
2019-05-14T06:07:08.837Z,94873.05
2019-05-14T06:09:38.168Z,94864.84
2019-05-14T06:12:08.747Z,94863.00
2019-05-14T06:14:38.195Z,94859.41
2019-05-14T06:17:08.608Z,94860.30
2019-05-14T06:19:38.170Z,94853.32
2019-05-14T06:22:09.554Z,94853.03
2019-05-14T06:24:38.971Z,94845.16
2019-05-14T06:27:09.478Z,94838.55
2019-05-14T06:29:38.288Z,94837.53
2019-05-14T06:32:09.099Z,94842.73
2019-05-14T06:34:38.228Z,94840.08
2019-05-14T06:37:08.421Z,94842.64
2019-05-14T06:39:39.188Z,94840.41
2019-05-14T06:42:08.786Z,94837.89
2019-05-14T06:44:38.548Z,94842.67
2019-05-14T06:47:09.323Z,94841.78
2019-05-14T06:49:38.563Z,94847.08
2019-05-14T06:52:08.763Z,94842.27
2019-05-14T06:54:38.651Z,94839.18
2019-05-14T06:57:08.891Z,94842.81
2019-05-14T06:59:38.122Z,94843.77
2019-05-14T07:02:08.733Z,94845.95
2019-05-14T07:04:39.202Z,94839.04
2019-05-14T07:07:08.527Z,94837.86
2019-05-14T07:09:38.417Z,94833.73
2019-05-14T07:12:09.127Z,94834.34
2019-05-14T07:14:38.866Z,94829.78
2019-05-14T07:17:09.120Z,94827.98
2019-05-14T07:19:38.468Z,94828.72
2019-05-14T07:22:09.020Z,94824.04
2019-05-14T07:24:40.407Z,94834.05
2019-05-14T07:27:09.446Z,94827.10
2019-05-14T07:29:38.911Z,94828.67
2019-05-14T07:32:08.955Z,94820.08
2019-05-14T07:34:38.924Z,94820.19
2019-05-14T07:37:09.376Z,94824.30
2019-05-14T07:39:38.573Z,94817.28
2019-05-14T07:42:09.763Z,94808.54
2019-05-14T07:44:39.066Z,94805.45
2019-05-14T07:47:08.367Z,94810.27
2019-05-14T07:49:38.579Z,94802.78
2019-05-14T07:52:09.234Z,94795.06
2019-05-14T07:54:38.986Z,94802.47
2019-05-14T07:57:08.737Z,94799.36
2019-05-14T07:59:38.080Z,94796.73
2019-05-14T08:02:09.148Z,94796.42
2019-05-14T08:04:38.076Z,94790.63
2019-05-14T08:07:09.040Z,94789.11
2019-05-14T08:09:38.894Z,94788.95
2019-05-14T08:12:09.332Z,94789.56
2019-05-14T08:14:46.203Z,94791.98
2019-05-14T08:17:08.679Z,94787.04
2019-05-14T08:19:38.647Z,94785.30
2019-05-14T08:22:09.373Z,94781.56
2019-05-14T08:24:38.539Z,94784.45
2019-05-14T08:27:08.553Z,94779.63
2019-05-14T08:29:39.948Z,94777.60
2019-05-14T08:32:08.753Z,94773.22
2019-05-14T08:34:38.930Z,94779.61
2019-05-14T08:37:08.268Z,94766.69
2019-05-14T08:39:39.147Z,94771.72
2019-05-14T08:42:08.541Z,94769.14
2019-05-14T08:44:38.950Z,94763.72
2019-05-14T08:47:09.517Z,94768.04
2019-05-14T08:49:45.583Z,94770.66
2019-05-14T08:52:08.792Z,94773.02
2019-05-14T08:54:39.153Z,94768.09
2019-05-14T08:57:09.880Z,94764.42
2019-05-14T08:59:39.569Z,94768.89
2019-05-14T09:02:10.745Z,94771.49
2019-05-14T09:04:42.703Z,94768.87
2019-05-14T09:07:09.716Z,94761.20
2019-05-14T09:09:38.466Z,94750.38
2019-05-14T09:12:12.379Z,94747.01
2019-05-14T09:14:38.870Z,94755.63
2019-05-14T09:17:09.864Z,94753.22
2019-05-14T09:19:40.852Z,94752.75
2019-05-14T09:22:09.537Z,94749.94
2019-05-14T09:24:38.879Z,94747.33
2019-05-14T09:27:08.403Z,94745.00
2019-05-14T09:29:39.207Z,94745.49
2019-05-14T09:32:09.359Z,94734.92
2019-05-14T09:34:39.314Z,94738.80
2019-05-14T09:37:08.581Z,94736.69
2019-05-14T09:39:38.595Z,94739.61
2019-05-14T09:42:08.210Z,94736.75
2019-05-14T09:44:38.731Z,94732.58
2019-05-14T09:47:08.500Z,94739.12
2019-05-14T09:49:38.839Z,94741.70
2019-05-14T09:52:09.101Z,94733.53
2019-05-14T09:54:41.529Z,94734.54
2019-05-14T09:57:08.311Z,94736.62
2019-05-14T09:59:38.461Z,94735.80
2019-05-14T10:02:09.167Z,94739.61
2019-05-14T10:04:39.230Z,94737.47
2019-05-14T10:07:08.709Z,94736.42
2019-05-14T10:09:39.063Z,94741.34
2019-05-14T10:12:08.996Z,94736.14
2019-05-14T10:14:39.259Z,94732.20
2019-05-14T10:17:07.588Z,94733.41
2019-05-14T10:19:38.893Z,94733.88
2019-05-14T10:22:08.354Z,94730.14
2019-05-14T10:24:38.587Z,94733.36
2019-05-14T10:27:08.955Z,94737.00
2019-05-14T10:29:39.422Z,94737.31
2019-05-14T10:32:08.701Z,94734.50
2019-05-14T10:34:37.370Z,94732.93
2019-05-14T10:37:08.348Z,94739.78
2019-05-14T10:39:38.860Z,94740.83
2019-05-14T10:42:08.954Z,94740.55
2019-05-14T10:44:38.764Z,94739.49
2019-05-14T10:47:09.339Z,94738.12
2019-05-14T10:49:38.674Z,94734.89
2019-05-14T10:52:08.291Z,94729.75
2019-05-14T10:54:38.921Z,94722.95
2019-05-14T10:57:09.577Z,94722.12
2019-05-14T10:59:37.204Z,94714.35
2019-05-14T11:02:05.675Z,94719.67
2019-05-14T11:04:34.652Z,94717.20
2019-05-14T11:07:03.482Z,94712.45
2019-05-14T11:09:32.260Z,94702.00
2019-05-14T11:12:00.655Z,94703.33
2019-05-14T11:14:31.692Z,94697.35
2019-05-14T11:16:59.372Z,94694.97
2019-05-14T11:19:28.232Z,94694.47
2019-05-14T11:21:57.902Z,94699.02
2019-05-14T11:24:29.553Z,94699.88
2019-05-14T11:26:59.091Z,94698.02
2019-05-14T11:29:29.517Z,94695.06
2019-05-14T11:31:58.135Z,94698.25
2019-05-14T11:34:28.778Z,94698.86
2019-05-14T11:36:58.933Z,94693.88
2019-05-14T11:39:28.775Z,94699.08
2019-05-14T11:41:59.099Z,94697.50
2019-05-14T11:44:28.611Z,94691.43
2019-05-14T11:47:01.610Z,94672.72
2019-05-14T11:49:27.535Z,94679.73
2019-05-14T11:52:04.107Z,94680.11
2019-05-14T11:54:26.060Z,94673.72
2019-05-14T11:56:54.522Z,94677.66
2019-05-14T11:59:23.189Z,94670.91
2019-05-14T12:01:54.836Z,94672.16
2019-05-14T12:04:21.714Z,94664.59
2019-05-14T12:06:50.376Z,94666.66
2019-05-14T12:09:19.009Z,94669.50
2019-05-14T12:11:47.439Z,94662.71
2019-05-14T12:14:15.846Z,94670.05
2019-05-14T12:16:44.237Z,94674.20
2019-05-14T12:19:12.634Z,94680.58
2019-05-14T12:21:57.369Z,94688.52
2019-05-14T12:24:13.614Z,94694.71
2019-05-14T12:26:41.605Z,94690.05
2019-05-14T12:29:10.265Z,94696.30
2019-05-14T12:31:38.824Z,94703.86
2019-05-14T12:34:07.293Z,94699.20
2019-05-14T12:36:35.635Z,94691.72
2019-05-14T12:39:05.545Z,94694.30
2019-05-14T12:41:33.933Z,94689.95
2019-05-14T12:44:02.397Z,94689.81
2019-05-14T12:46:30.787Z,94689.16
2019-05-14T12:48:59.228Z,94679.27
2019-05-14T12:51:27.569Z,94678.31
2019-05-14T12:53:58.264Z,94674.23
2019-05-14T12:56:29.135Z,94673.70
2019-05-14T12:58:58.331Z,94670.31
2019-05-14T13:01:26.622Z,94666.63
2019-05-14T13:03:55.063Z,94657.95
2019-05-14T13:06:23.772Z,94654.87
2019-05-14T13:08:52.162Z,94651.28
2019-05-14T13:11:20.558Z,94643.71
2019-05-14T13:13:49.277Z,94643.27
2019-05-14T13:16:19.399Z,94634.67
2019-05-14T13:18:49.845Z,94633.55
2019-05-14T13:21:19.199Z,94637.06
2019-05-14T13:23:48.740Z,94640.01
2019-05-14T13:26:18.934Z,94645.75
2019-05-14T13:28:50.735Z,94637.90
2019-05-14T13:31:18.417Z,94650.63
2019-05-14T13:33:48.948Z,94652.68
2019-05-14T13:36:20.338Z,94650.91
2019-05-14T13:38:49.028Z,94652.20
2019-05-14T13:41:19.229Z,94650.37
2019-05-14T13:43:50.357Z,94665.50
2019-05-14T13:46:19.098Z,94669.06
2019-05-14T13:48:49.895Z,94667.08
2019-05-14T13:51:19.485Z,94668.67
2019-05-14T13:53:49.895Z,94657.94
2019-05-14T13:56:18.905Z,94662.42
2019-05-14T13:58:48.920Z,94659.38
2019-05-14T14:01:19.381Z,94654.02
2019-05-14T14:04:02.664Z,94649.94
2019-05-14T14:06:20.681Z,94650.23
2019-05-14T14:08:48.874Z,94644.56
2019-05-14T14:11:19.360Z,94641.63
2019-05-14T14:13:49.022Z,94647.09
2019-05-14T14:16:19.689Z,94644.34
2019-05-14T14:18:50.040Z,94649.89
2019-05-14T14:21:19.636Z,94656.24
2019-05-14T14:23:49.501Z,94652.06
2019-05-14T14:26:18.575Z,94649.03
2019-05-14T14:28:49.390Z,94640.73
2019-05-14T14:31:18.947Z,94633.29
2019-05-14T14:33:48.718Z,94627.07
2019-05-14T14:36:19.922Z,94620.25
2019-05-14T14:38:49.581Z,94617.58
2019-05-14T14:41:19.297Z,94613.15
2019-05-14T14:43:53.852Z,94610.08
2019-05-14T14:46:19.511Z,94599.12
2019-05-14T14:48:49.336Z,94593.61
2019-05-14T14:51:19.263Z,94591.28
2019-05-14T14:53:59.332Z,94583.78
2019-05-14T14:56:18.965Z,94574.39
2019-05-14T14:58:49.404Z,94567.80
2019-05-14T15:01:19.576Z,94562.72
2019-05-14T15:03:49.574Z,94556.56
2019-05-14T15:06:18.484Z,94554.50
2019-05-14T15:08:49.355Z,94549.94
2019-05-14T15:11:17.301Z,94544.86
2019-05-14T15:13:48.087Z,94538.28
2019-05-14T15:16:15.959Z,94540.86
2019-05-14T15:18:44.453Z,94545.41
2019-05-14T15:21:12.856Z,94548.23
2019-05-14T15:23:43.571Z,94558.62
2019-05-14T15:26:12.211Z,94569.66
2019-05-14T15:28:40.631Z,94571.20
2019-05-14T15:31:09.348Z,94580.52
2019-05-14T15:33:37.751Z,94588.05
2019-05-14T15:36:08.776Z,94581.63
2019-05-14T15:38:39.310Z,94592.19
2019-05-14T15:41:09.387Z,94589.28
2019-05-14T15:43:39.490Z,94589.28
2019-05-14T15:46:08.696Z,94585.77
2019-05-14T15:48:39.445Z,94586.20
2019-05-14T15:51:11.566Z,94573.58
2019-05-14T15:53:38.742Z,94577.09
2019-05-14T15:56:08.149Z,94568.97
2019-05-14T15:58:38.987Z,94559.92
2019-05-14T16:01:10.051Z,94554.20
2019-05-14T16:03:41.481Z,94544.76
2019-05-14T16:06:08.981Z,94542.47
2019-05-14T16:08:40.259Z,94544.22
2019-05-14T16:11:11.285Z,94536.52
2019-05-14T16:13:39.814Z,94541.24
2019-05-14T16:16:10.626Z,94539.13
2019-05-14T16:18:38.718Z,94535.55
2019-05-14T16:21:10.252Z,94538.77
2019-05-14T16:23:38.755Z,94534.83
2019-05-14T16:26:08.833Z,94540.88
2019-05-14T16:28:39.399Z,94546.88
2019-05-14T16:31:08.527Z,94561.53
2019-05-14T16:33:40.343Z,94565.16
2019-05-14T16:36:08.851Z,94569.39
2019-05-14T16:38:39.445Z,94585.48
2019-05-14T16:41:07.945Z,94588.00
2019-05-14T16:43:36.348Z,94577.28
2019-05-14T16:46:05.007Z,94542.77
2019-05-14T16:48:33.744Z,94539.07
2019-05-14T16:51:02.130Z,94532.23
2019-05-14T16:53:30.528Z,94539.38
2019-05-14T16:55:58.907Z,94542.33
2019-05-14T16:58:29.197Z,94537.89
2019-05-14T17:00:58.870Z,94547.23
2019-05-14T17:03:29.764Z,94549.60
2019-05-14T17:05:58.083Z,94555.48
2019-05-14T17:08:28.459Z,94556.67
2019-05-14T17:10:58.938Z,94566.22
2019-05-14T17:13:28.582Z,94568.05
2019-05-14T17:15:58.904Z,94564.73
2019-05-14T17:18:28.671Z,94558.98
2019-05-14T17:20:59.376Z,94564.88
2019-05-14T17:23:28.404Z,94566.92
2019-05-14T17:25:58.010Z,94561.00
2019-05-14T17:28:28.596Z,94567.28
2019-05-14T17:30:56.687Z,94557.59
2019-05-14T17:33:25.101Z,94547.94
2019-05-14T17:35:53.743Z,94549.03
2019-05-14T17:38:22.141Z,94539.44
2019-05-14T17:40:50.523Z,94539.31
2019-05-14T17:43:20.111Z,94537.20
2019-05-14T17:45:49.106Z,94541.70
2019-05-14T17:48:18.284Z,94546.48
2019-05-14T17:50:49.152Z,94548.59
2019-05-14T17:53:18.354Z,94545.98
2019-05-14T17:55:50.546Z,94548.86
2019-05-14T17:58:18.848Z,94547.72
2019-05-14T18:00:47.080Z,94550.03
2019-05-14T18:03:18.256Z,94548.41
2019-05-14T18:05:45.587Z,94554.84
2019-05-14T18:08:14.013Z,94555.64
2019-05-14T18:10:42.399Z,94558.75
2019-05-14T18:13:10.804Z,94566.30
2019-05-14T18:15:39.589Z,94590.98
2019-05-14T18:18:08.925Z,94593.73
2019-05-14T18:20:39.476Z,94586.48
2019-05-14T18:23:11.447Z,94592.09
2019-05-14T18:25:38.882Z,94582.36
2019-05-14T18:28:09.308Z,94578.20
2019-05-14T18:30:38.706Z,94580.16
2019-05-14T18:33:07.970Z,94578.28
2019-05-14T18:35:45.119Z,94583.30
2019-05-14T18:38:08.276Z,94577.92
2019-05-14T18:40:36.795Z,94584.88
2019-05-14T18:43:05.250Z,94586.88
2019-05-14T18:45:33.957Z,94583.30
2019-05-14T18:48:02.342Z,94585.23
2019-05-14T18:50:30.731Z,94591.11
2019-05-14T18:53:00.058Z,94593.89
2019-05-14T18:55:29.338Z,94595.86
2019-05-14T18:57:59.394Z,94595.81
2019-05-14T19:00:29.510Z,94607.31
2019-05-14T19:02:58.449Z,94594.77
2019-05-14T19:05:29.550Z,94591.14
2019-05-14T19:07:59.287Z,94571.69
2019-05-14T19:10:28.125Z,94558.77
2019-05-14T19:12:58.794Z,94554.33
2019-05-14T19:15:26.765Z,94557.05
2019-05-14T19:17:57.800Z,94548.41
2019-05-14T19:20:25.670Z,94553.13
2019-05-14T19:22:54.401Z,94550.33
2019-05-14T19:25:22.804Z,94545.03
2019-05-14T19:27:51.192Z,94553.21
2019-05-14T19:30:19.777Z,94551.81
2019-05-14T19:32:48.624Z,94555.31
2019-05-14T19:35:19.125Z,94560.80
2019-05-14T19:37:48.669Z,94554.20
2019-05-14T19:40:19.002Z,94552.36
2019-05-14T19:42:48.501Z,94548.34
2019-05-14T19:45:17.406Z,94554.30
2019-05-14T19:47:45.861Z,94552.88
2019-05-14T19:50:14.993Z,94545.97
2019-05-14T19:52:43.385Z,94551.53
2019-05-14T19:55:12.352Z,94550.98
2019-05-14T19:57:41.047Z,94548.61
2019-05-14T20:00:10.170Z,94549.48
2019-05-14T20:02:38.737Z,94552.03
2019-05-14T20:05:08.977Z,94547.59
2019-05-14T20:07:38.760Z,94547.33
2019-05-14T20:10:08.600Z,94547.06
2019-05-14T20:12:39.337Z,94545.70
2019-05-14T20:15:09.495Z,94539.91
2019-05-14T20:17:38.731Z,94545.85
2019-05-14T20:20:08.826Z,94544.78
2019-05-14T20:22:39.133Z,94539.59
2019-05-14T20:25:10.160Z,94539.91
2019-05-14T20:27:39.194Z,94543.53
2019-05-14T20:30:10.269Z,94554.99
2019-05-14T20:32:38.928Z,94558.08
2019-05-14T20:35:09.040Z,94551.00
2019-05-14T20:37:39.023Z,94555.70
2019-05-14T20:40:09.895Z,94547.91
2019-05-14T20:42:39.176Z,94547.48
2019-05-14T20:45:08.714Z,94535.63
2019-05-14T20:47:39.071Z,94536.62
2019-05-14T20:50:08.991Z,94534.22
2019-05-14T20:52:38.163Z,94530.55
2019-05-14T20:55:09.584Z,94531.42
2019-05-14T20:57:38.498Z,94535.27
2019-05-14T21:00:11.360Z,94532.88
2019-05-14T21:02:39.812Z,94531.35
2019-05-14T21:05:13.629Z,94529.80
2019-05-14T21:07:39.013Z,94535.69
2019-05-14T21:10:11.024Z,94529.16
2019-05-14T21:12:39.703Z,94525.26
2019-05-14T21:15:09.659Z,94528.70
2019-05-14T21:17:39.181Z,94530.50
2019-05-14T21:20:09.323Z,94529.53
2019-05-14T21:22:40.007Z,94523.84
2019-05-14T21:25:11.202Z,94521.41
2019-05-14T21:27:44.845Z,94516.17
2019-05-14T21:30:09.332Z,94520.87
2019-05-14T21:32:42.041Z,94523.30
2019-05-14T21:35:08.169Z,94510.38
2019-05-14T21:37:38.990Z,94510.05
2019-05-14T21:40:09.260Z,94509.78
2019-05-14T21:42:38.558Z,94508.98
2019-05-14T21:45:09.929Z,94512.23
2019-05-14T21:47:38.916Z,94511.09
2019-05-14T21:50:09.034Z,94507.47
2019-05-14T21:52:39.294Z,94505.62
2019-05-14T21:55:08.611Z,94507.14
2019-05-14T21:57:38.182Z,94504.05
2019-05-14T22:00:18.781Z,94506.98
2019-05-14T22:02:49.182Z,94516.77
2019-05-14T22:05:18.975Z,94532.28
2019-05-14T22:07:48.532Z,94543.59
2019-05-14T22:10:19.155Z,94537.13
2019-05-14T22:12:48.789Z,94547.95
2019-05-14T22:15:18.440Z,94545.37
2019-05-14T22:17:48.987Z,94540.34
2019-05-14T22:20:19.188Z,94535.31
2019-05-14T22:22:48.345Z,94528.08
2019-05-14T22:25:18.996Z,94533.91
2019-05-14T22:27:48.393Z,94530.81
2019-05-14T22:30:18.250Z,94529.59
2019-05-14T22:32:46.815Z,94521.62
2019-05-14T22:35:15.341Z,94518.75
2019-05-14T22:37:44.010Z,94525.86
2019-05-14T22:40:12.935Z,94521.28
2019-05-14T22:42:41.600Z,94511.39
2019-05-14T22:45:10.519Z,94518.80
2019-05-14T22:47:40.392Z,94511.40
2019-05-14T22:50:09.796Z,94506.08
2019-05-14T22:52:38.756Z,94499.88
2019-05-14T22:55:07.599Z,94499.45
2019-05-14T22:57:38.900Z,94505.97
2019-05-14T23:00:10.814Z,94507.91
2019-05-14T23:02:39.469Z,94494.64
2019-05-14T23:05:08.455Z,94499.34
2019-05-14T23:07:38.352Z,94492.66
2019-05-14T23:10:08.932Z,94493.56
2019-05-14T23:12:38.539Z,94489.59
2019-05-14T23:15:08.146Z,94484.75
2019-05-14T23:17:38.727Z,94485.31
2019-05-14T23:20:09.147Z,94484.34
2019-05-14T23:22:38.951Z,94476.66
2019-05-14T23:25:09.104Z,94472.22
2019-05-14T23:27:39.159Z,94476.99
2019-05-14T23:30:07.793Z,94471.54
2019-05-14T23:32:38.431Z,94464.78
2019-05-14T23:35:07.871Z,94459.76
2019-05-14T23:37:36.507Z,94464.12
2019-05-14T23:40:08.554Z,94457.38
2019-05-14T23:42:39.014Z,94456.75
2019-05-14T23:45:08.175Z,94459.28
2019-05-14T23:47:38.358Z,94454.41
2019-05-14T23:50:08.232Z,94465.95
2019-05-14T23:52:38.797Z,94466.62
2019-05-14T23:55:08.527Z,94462.28
2019-05-14T23:57:37.179Z,94463.50
